KNCA

New River MCAS / H / / McCutcheon Field / Airport

Jacksonville, North Carolina, USA
METAR KNCA 191656Z AUTO 25009KT 10SM FEW036 31/23 A2996 RMK AO2 SLP148 T03110233
Observed Flight Rules
Aug-19 @ 16:56 UTC (16 minutes ago) Visual Flight Rules
Wind Visibility Clouds
250° at 9 knots 10 miles
  • Few at 3,600' AGL
Temperatures Readings
Current 31°C / 88°F
Dewpoint 23°C / 73°F
Humidity 62%
Altimeter 29.96" Hg
Pressure 1014.8 hPa
Elevation 8
METAR KNCA 191656Z AUTO 25009KT 10SM FEW036 31/23 A2996 RMK AO2 SLP148 T03110233
Observed Flight Rules
Aug-19 @ 16:56 UTC
(16 minutes ago)
VFR
Wind Visibility
250° at 9 knots 10 miles
Clouds
  • Few at 3,600' AGL
Temperature Dewpoint
31°C / 88°F 23°C / 73°F
Humidity Altimeter Pressure
62% 29.96" Hg 1014.8 hPa